Flight Track Log - Related Links

Times and Time Zones

All times are in EDT time to prevent confusion due to time zone crossing. See the SWA1462 flight status page for this flight to view local times or setup timezone preferences in your user account.

Time Position Orientation Groundspeed Altitude Reporting Facility
EDT Latitude Longitude Course Direction KTS MPH feet Rate Location/Type
Tue 04:04:24 PM 33.4333 -112.0333 273° West 163 188 2,400  Level Phoenix TRACON
Tue 04:06:11 PM 33.4381 -112.1419 273° West 210 242 6,300 3,089 Climbing Los Center
Tue 04:07:13 PM 33.5078 -112.1803 335° Northwest 299 344 11,100 3,641 Climbing Los Center
Tue 04:08:08 PM 33.5592 -112.1369 35° Northeast 293 337 13,400 2,718 Climbing Albuquerque Center
Tue 04:09:10 PM 33.6506 -112.0619 34° Northeast 331 381 16,400 2,710 Climbing Albuquerque Center
Tue 04:10:12 PM 33.7328 -111.9942 34° Northeast 355 409 19,000 1,707 Climbing Albuquerque Center
Tue 04:11:13 PM 33.8206 -111.9206 35° Northeast 367 422 19,900 1,512 Climbing Albuquerque Center
Tue 04:12:15 PM 33.9111 -111.8603 29° Northeast 373 429 22,100 2,177 Climbing Albuquerque Center
Tue 04:13:17 PM 34.0283 -111.8744 354° North 391 450 24,400 2,098 Climbing Albuquerque Center
Tue 04:14:18 PM 34.1381 -111.8881 354° North 397 457 26,400 1,805 Climbing Albuquerque Center
Tue 04:15:20 PM 34.2450 -111.9053 352° North 407 468 28,100 1,500 Climbing Albuquerque Center
Tue 04:16:22 PM 34.3631 -111.9219 353° North 420 483 29,500 1,268 Climbing Albuquerque Center
Tue 04:17:23 PM 34.4825 -111.9386 353° North 428 493 30,700 1,317 Climbing Albuquerque Center
Tue 04:18:25 PM 34.6056 -111.9558 353° North 438 504 32,200 1,694 Climbing Albuquerque Center
Tue 04:19:27 PM 34.7525 -111.9764 353° North 442 509 34,200 1,548 Climbing Albuquerque Center
Tue 04:20:29 PM 34.8756 -111.9939 353° North 439 505 35,400 878 Climbing Albuquerque Center
Tue 04:21:30 PM 34.9983 -112.0108 354° North 443 510 36,000 293 Climbing Albuquerque Center
Tue 04:22:32 PM 35.1211 -112.0264 354° North 445 512 36,000  Level Albuquerque Center
Tue 04:23:34 PM 35.2431 -112.0444 353° North 445 512 36,000  Level Albuquerque Center
Tue 04:24:36 PM 35.3633 -112.0617 353° North 443 510 36,000  Level Albuquerque Center
Tue 04:25:37 PM 35.5089 -112.0819 354° North 442 509 36,000  Level Albuquerque Center
Tue 04:26:52 PM 35.6539 -112.1017 354° North 440 506 36,000 307 Level Los Center
Tue 04:27:54 PM 35.7736 -112.1186 353° North 438 504 36,700 629 Climbing Los Center
Tue 04:28:56 PM 35.8939 -112.1364 353° North 438 504 37,300 532 Climbing Los Center
Tue 04:29:58 PM 36.0153 -112.1725 346° North 453 521 37,800 339 Climbing Los Center
Tue 04:31:00 PM 36.1525 -112.2422 338° Northwest 450 518 38,000 97 Climbing Los Center
Tue 04:32:02 PM 36.2697 -112.2975 339° North 447 514 38,000  Level Los Center
Tue 04:33:04 PM 36.3844 -112.3553 338° Northwest 446 513 38,000  Level Los Center
Tue 04:34:06 PM 36.5028 -112.4000 343° North 446 513 38,000  Level Los Center
Tue 04:35:08 PM 36.6261 -112.4256 351° North 450 518 38,000  Level Los Center
Tue 04:36:10 PM 36.7728 -112.4608 349° North 450 518 38,000  Level Los Center
Tue 04:37:12 PM 36.8950 -112.4894 349° North 449 517 38,000  Level Los Center
Tue 04:38:14 PM 37.0164 -112.5194 349° North 446 513 38,000  Level Los Center
Tue 04:39:16 PM 37.1364 -112.5514 348° North 443 510 38,000  Level Los Center
Tue 04:40:18 PM 37.2422 -112.6300 329° Northwest 443 510 38,000  Level Los Center
Tue 04:40:33 PM 37.2831 -112.6633 327° Northwest 442 509 38,000  Level Salt Center
Tue 04:41:35 PM 37.3858 -112.7453 328° Northwest 440 506 38,000  Level Salt Center
Tue 04:42:36 PM 37.4894 -112.8278 328° Northwest 439 505 38,000  Level Salt Center
Tue 04:43:37 PM 37.5831 -112.9044 327° Northwest 438 504 38,000  Level Salt Center
Tue 04:44:39 PM 37.6933 -113.0178 321° Northwest 440 506 38,000  Level Salt Center
Tue 04:45:40 PM 37.7839 -113.1200 318° Northwest 436 502 38,000  Level Salt Center
Tue 04:46:42 PM 37.8736 -113.2217 318° Northwest 434 499 38,000  Level Salt Center
Tue 04:47:43 PM 37.9631 -113.3217 319° Northwest 431 496 38,000  Level Salt Center
Tue 04:48:44 PM 38.0519 -113.4222 318° Northwest 429 494 38,000  Level Salt Center
Tue 04:49:46 PM 38.1381 -113.5233 317° Northwest 425 489 38,000  Level Salt Center
Tue 04:50:47 PM 38.2283 -113.6183 320° Northwest 421 484 38,000  Level Salt Center
Tue 04:51:49 PM 38.3144 -113.7189 318° Northwest 419 482 38,000  Level Salt Center
Tue 04:52:50 PM 38.4019 -113.8169 319° Northwest 420 483 38,000  Level Salt Center
Tue 04:53:51 PM 38.5058 -113.9367 318° Northwest 421 484 38,000  Level Salt Center
Tue 04:54:53 PM 38.5939 -114.0378 318° Northwest 424 488 38,000  Level Salt Center
Tue 04:55:54 PM 38.6833 -114.1406 318° Northwest 431 496 38,000  Level Salt Center
Tue 04:56:56 PM 38.7714 -114.2428 318° Northwest 429 494 38,000  Level Salt Center
Tue 04:57:57 PM 38.8592 -114.3450 318° Northwest 428 493 38,000  Level Salt Center
Tue 04:58:58 PM 38.9456 -114.4467 318° Northwest 424 488 38,000  Level Salt Center
Tue 05:00:00 PM 39.0311 -114.5481 317° Northwest 421 484 38,000  Level Salt Center
Tue 05:01:01 PM 39.1164 -114.6461 318° Northwest 415 478 38,000  Level Salt Center
Tue 05:02:03 PM 39.2036 -114.7561 316° Northwest 420 483 38,000  Level Salt Center
Tue 05:03:04 PM 39.3003 -114.8675 318° Northwest 417 480 38,000  Level Salt Center
Tue 05:04:05 PM 39.3939 -114.9336 331° Northwest 402 463 38,000  Level Salt Center
Tue 05:05:07 PM 39.5078 -115.0050 334° Northwest 405 466 38,000  Level Salt Center
Tue 05:06:08 PM 39.6028 -115.0700 332° Northwest 402 463 38,000  Level Salt Center
Tue 05:07:10 PM 39.6969 -115.1339 332° Northwest 400 460 38,000  Level Salt Center
Tue 05:08:11 PM 39.8056 -115.2083 332° Northwest 397 457 38,000  Level Salt Center
Tue 05:09:12 PM 39.8989 -115.2717 333° Northwest 395 455 38,000  Level Salt Center
Tue 05:10:14 PM 40.0083 -115.3461 332° Northwest 395 455 38,000  Level Salt Center
Tue 05:11:15 PM 40.1011 -115.4119 332° Northwest 398 458 38,000  Level Salt Center
Tue 05:12:17 PM 40.1936 -115.4753 332° Northwest 395 455 38,000  Level Salt Center
Tue 05:13:18 PM 40.3044 -115.5514 332° Northwest 399 459 38,000  Level Salt Center
Tue 05:14:20 PM 40.3981 -115.6167 332° Northwest 400 460 38,000  Level Salt Center
Tue 05:15:21 PM 40.5050 -115.6933 331° Northwest 395 455 38,000  Level Salt Center
Tue 05:16:23 PM 40.5983 -115.7575 332° Northwest 395 455 38,000  Level Salt Center
Tue 05:17:24 PM 40.7019 -115.8306 332° Northwest 384 442 38,000  Level Salt Center
Tue 05:18:26 PM 40.7922 -115.8936 332° Northwest 384 442 38,000  Level Salt Center
Tue 05:19:27 PM 40.8797 -115.9550 332° Northwest 379 436 38,000  Level Salt Center
Tue 05:20:29 PM 40.9783 -116.0244 332° Northwest 366 421 38,000  Level Salt Center
Tue 05:21:30 PM 41.0642 -116.0853 332° Northwest 363 418 38,000  Level Salt Center
Tue 05:22:32 PM 41.1653 -116.1575 332° Northwest 369 425 38,000  Level Salt Center
Tue 05:23:34 PM 41.2511 -116.2186 332° Northwest 368 423 38,000  Level Salt Center
Tue 05:24:35 PM 41.3519 -116.2942 331° Northwest 372 428 38,000  Level Salt Center
Tue 05:25:37 PM 41.4367 -116.3550 332° Northwest 364 419 38,000  Level Salt Center
Tue 05:26:38 PM 41.5192 -116.4156 331° Northwest 356 410 38,000  Level Salt Center
Tue 05:27:40 PM 41.6181 -116.4867 332° Northwest 360 414 38,000  Level Salt Center
Tue 05:28:42 PM 41.7025 -116.5478 332° Northwest 361 415 38,000  Level Salt Center
Tue 05:29:43 PM 41.8014 -116.6194 332° Northwest 361 415 38,000  Level Salt Center
Tue 05:30:45 PM 41.8842 -116.6811 331° Northwest 355 409 38,000  Level Salt Center
Tue 05:31:47 PM 41.9808 -116.7503 332° Northwest 351 404 38,000  Level Salt Center
Tue 05:32:48 PM 42.0639 -116.8106 332° Northwest 355 409 38,000  Level Salt Center
Tue 05:33:50 PM 42.1475 -116.8717 332° Northwest 359 413 38,000  Level Salt Center
Tue 05:34:52 PM 42.2433 -116.9431 331° Northwest 353 406 38,000  Level Salt Center
Tue 05:35:53 PM 42.3233 -117.0036 331° Northwest 348 400 38,000  Level Salt Center
Tue 05:36:55 PM 42.4189 -117.0739 332° Northwest 349 402 38,000  Level Salt Center
Tue 05:37:57 PM 42.5028 -117.1375 331° Northwest 357 411 38,000  Level Salt Center
Tue 05:38:58 PM 42.5989 -117.2103 331° Northwest 354 407 38,000  Level Salt Center
Tue 05:40:00 PM 42.6814 -117.2731 331° Northwest 354 407 38,000  Level Salt Center
Tue 05:41:02 PM 42.7789 -117.3467 331° Northwest 358 412 38,000  Level Salt Center
Tue 05:42:04 PM 42.8619 -117.4094 331° Northwest 357 411 38,000  Level Salt Center
Tue 05:43:05 PM 42.9442 -117.4725 331° Northwest 355 409 38,000  Level Salt Center
Tue 05:44:07 PM 43.0408 -117.5456 331° Northwest 355 409 38,000  Level Salt Center
Tue 05:45:09 PM 43.1225 -117.6081 331° Northwest 351 404 38,000  Level Salt Center
Tue 05:46:10 PM 43.2197 -117.6831 331° Northwest 356 410 38,000  Level Salt Center
Tue 05:47:12 PM 43.3025 -117.7481 330° Northwest 357 411 38,000  Level Salt Center
Tue 05:48:14 PM 43.3856 -117.8119 331° Northwest 357 411 38,000  Level Salt Center
Tue 05:49:15 PM 43.4842 -117.8889 330° Northwest 361 415 38,000  Level Salt Center
Tue 05:50:17 PM 43.5683 -117.9544 331° Northwest 363 418 38,000  Level Salt Center
Tue 05:51:19 PM 43.6667 -118.0322 330° Northwest 365 420 38,000  Level Salt Center
Tue 05:52:20 PM 43.7525 -118.0989 331° Northwest 370 426 38,000  Level Salt Center
Tue 05:53:22 PM 43.8514 -118.1756 331° Northwest 365 420 38,000  Level Salt Center
Tue 05:54:24 PM 43.9339 -118.2417 330° Northwest 360 414 38,000  Level Salt Center
Tue 05:55:25 PM 44.0167 -118.3072 330° Northwest 358 412 38,000  Level Salt Center
Tue 05:56:27 PM 44.1047 -118.3767 330° Northwest 356 410 38,000  Level Salt Center
Tue 05:57:17 PM 44.1722 -118.4319 330° Northwest 353 406 38,000  Level Seattle Center
Tue 05:58:18 PM 44.2578 -118.4983 331° Northwest 354 407 38,000  Level Seattle Center
Tue 05:59:18 PM 44.3414 -118.5656 330° Northwest 350 403 38,000  Level Seattle Center
Tue 06:00:19 PM 44.4431 -118.6483 330° Northwest 353 406 38,000  Level Seattle Center
Tue 06:01:20 PM 44.5289 -118.7164 331° Northwest 354 407 38,000  Level Seattle Center
Tue 06:02:21 PM 44.6147 -118.7867 330° Northwest 357 411 38,000  Level Seattle Center
Tue 06:03:21 PM 44.6986 -118.8547 330° Northwest 352 405 38,000  Level Seattle Center
Tue 06:04:22 PM 44.7833 -118.9256 329° Northwest 355 409 38,000  Level Seattle Center
Tue 06:05:23 PM 44.8678 -118.9964 329° Northwest 355 409 38,000  Level Seattle Center
Tue 06:06:24 PM 44.9556 -119.0667 330° Northwest 362 417 38,000  Level Seattle Center
Tue 06:07:24 PM 45.0431 -119.1392 330° Northwest 366 421 38,000  Level Seattle Center
Tue 06:08:25 PM 45.1300 -119.2125 329° Northwest 367 422 38,000  Level Seattle Center
Tue 06:09:26 PM 45.2181 -119.2842 330° Northwest 368 423 38,000  Level Seattle Center
Tue 06:10:27 PM 45.3047 -119.3592 329° Northwest 367 422 38,000  Level Seattle Center
Tue 06:11:28 PM 45.3925 -119.4336 329° Northwest 369 425 38,000  Level Seattle Center
Tue 06:12:28 PM 45.4978 -119.5194 330° Northwest 367 422 38,000  Level Seattle Center
Tue 06:13:29 PM 45.5853 -119.5933 329° Northwest 367 422 38,000  Level Seattle Center
Tue 06:14:30 PM 45.6719 -119.6664 330° Northwest 364 419 38,000  Level Seattle Center
Tue 06:15:31 PM 45.7575 -119.7403 329° Northwest 362 417 38,000  Level Seattle Center
Tue 06:16:32 PM 45.8431 -119.8117 330° Northwest 359 413 38,000  Level Seattle Center
Tue 06:17:32 PM 45.9289 -119.8858 329° Northwest 360 414 38,000  Level Seattle Center
Tue 06:18:33 PM 46.0139 -119.9597 329° Northwest 359 413 38,000  Level Seattle Center
Tue 06:19:34 PM 46.0997 -120.0347 329° Northwest 361 415 38,000  Level Seattle Center
Tue 06:20:35 PM 46.1867 -120.1083 330° Northwest 364 419 38,000  Level Seattle Center
Tue 06:21:35 PM 46.2736 -120.1875 328° Northwest 369 425 38,000  Level Seattle Center
Tue 06:22:36 PM 46.3606 -120.2619 329° Northwest 365 420 38,000  Level Seattle Center
Tue 06:23:37 PM 46.4467 -120.3389 328° Northwest 365 420 38,000  Level Seattle Center
Tue 06:24:38 PM 46.5342 -120.4142 329° Northwest 367 422 38,000  Level Seattle Center
Tue 06:25:38 PM 46.6144 -120.5419 312° West 365 420 38,000 -843 Level Seattle Center
Tue 06:26:39 PM 46.6722 -120.6622 305° West 364 419 36,300 -2,262 Descending Seattle Center
Tue 06:27:40 PM 46.7289 -120.7808 305° West 358 412 33,400 -2,803 Descending Seattle Center
Tue 06:28:41 PM 46.7886 -120.9067 305° West 371 427 30,600 -2,579 Descending Seattle Center
Tue 06:29:41 PM 46.8486 -121.0386 304° West 387 445 28,200 -2,331 Descending Seattle Center
Tue 06:30:42 PM 46.9078 -121.1633 305° West 379 436 25,900 -2,262 Descending Seattle Center
Tue 06:31:43 PM 46.9650 -121.2872 304° West 371 427 23,600 -2,213 Descending Seattle Center
Tue 06:32:44 PM 47.0194 -121.4083 303° West 362 417 21,400 -2,217 Descending Seattle Center
Tue 06:33:15 PM 47.0544 -121.4761 307° West 348 400 20,200 -1,475 Descending Seattle Center
Tue 06:33:45 PM 47.0750 -121.5239 302° West 346 398 19,900 -1,385 Descending Seattle Center
Tue 06:34:33 PM 47.1181 -121.6167 304° West 311 358 18,400 -1,706 Descending Seattle Center
Tue 06:35:34 PM 47.1681 -121.7225 305° West 313 360 16,800 -1,909 Descending Seattle Center
Tue 06:36:23 PM 47.2089 -121.8108 304° West 314 361 14,900 -1,479 Descending Seattle Center
Tue 06:36:47 PM 47.2214 -121.8383 304° West 312 359 15,000 -984 Climbing Seattle Center
Tue 06:37:24 PM 47.2553 -121.9125 304° West 300 345 13,900 -1,475 Descending Seattle Center
Tue 06:37:48 PM 47.2664 -121.9364 304° West 295 339 13,500 -1,475 Descending Seattle Center
Tue 06:38:25 PM 47.2983 -122.0097 303° West 282 325 12,400 -1,475 Descending Seattle Center
Tue 06:38:49 PM 47.3097 -122.0314 308° West 283 326 12,000 -1,574 Descending Seattle Center
Tue 06:39:26 PM 47.3417 -122.1003 304° West 272 313 10,800 -1,770 Descending Seattle Center
Tue 06:39:50 PM 47.3597 -122.1419 303° West 273 314 10,200 -900 Descending Seattle Center
Tue 06:40:26 PM 47.3892 -122.1819 317° Northwest 266 306 9,900 -1,180 Descending Seattle Center
Tue 06:40:51 PM 47.4206 -122.1836 358° North 269 310 9,000 -1,855 Descending Seattle Center
Tue 06:41:21 PM 47.4575 -122.1800 North 272 313 8,200 -1,574 Descending Seattle Center
Tue 06:41:52 PM 47.4939 -122.1761 North 267 307 7,400 -1,791 Descending Seattle Center
Tue 06:42:28 PM 47.5406 -122.1733 North 259 298 6,200 -1,672 Descending Seattle Center
Tue 06:42:53 PM 47.5678 -122.1706 North 259 298 5,700 -1,091 Descending Seattle Center
Tue 06:43:34 PM 47.6167 -122.1672 North 253 291 5,000 -700 Descending Seattle Center
Tue 06:43:53 PM 47.6406 -122.1700 356° North 244 281 5,000  Level Seattle Center
Tue 06:44:29 PM 47.6561 -122.2078 301° West 211 243 5,000  Level Seattle Center
Tue 06:44:54 PM 47.6564 -122.2461 271° West 206 237 5,000  Level Seattle Center
Tue 06:45:24 PM 47.6553 -122.2839 268° West 192 221 5,000 -393 Level Seattle Center
Tue 06:45:55 PM 47.6336 -122.3039 212° Southwest 184 212 4,600 -984 Descending Seattle Center
Tue 06:46:25 PM 47.6131 -122.3106 192° South 161 185 4,000 -1,279 Descending Seattle Center
Tue 06:46:56 PM 47.5875 -122.3108 180° South 171 197 3,300 -1,400 Descending Seattle Center
Tue 06:47:25 PM 47.5617 -122.3094 178° South 171 197 2,600 -1,180 Descending Seattle Center
Tue 06:47:57 PM 47.5411 -122.3108 183° South 169 194 2,100 -885 Descending Seattle Center
Tue 06:48:26 PM 47.5203 -122.3128 184° South 148 170 1,700 -787 Descending Seattle Center
Tue 06:48:58 PM 47.5028 -122.3111 176° South 136 157 1,300 -689 Descending Seattle Center
Tue 06:49:27 PM 47.4847 -122.3125 183° South 123 142 1,000 -689 Descending Seattle Center
Tue 06:49:59 PM 47.4667 -122.3114 178° South 130 150 600 -391 Descending Seattle Center
Tue 06:50:59 PM 47.4294 -122.3142 183° South 131 151 400 -200 Descending Seattle Center
Tue 06:52:00 PM 47.4333 -122.3000 306° West  Level FlightAware

Login

Don't have an account? Register now (free) for customized features, flight alerts, and more!